Terminal Aerodrome Forecast
Issued by NWS

Home | Current Version | Previous Version | Text Only | Print | Product List | Glossary On
Versions: 1 2 3 4 5 6 7 8 9 10 11 12 13 14 15 16 17 18 19 20 21 22
000
FTUS44 KLIX 180544 AAA
TAFMSY
TAF AMD
KMSY 180544Z 1806/1906 14006KT 1 1/2SM BR BKN004 OVC016
     FM180700 14005KT 3/4SM BR OVC003
     FM180800 14004KT 1/4SM FG VV002
     FM181600 16006KT P6SM BKN005
     FM181900 16006KT P6SM VCSH BKN040
     FM190300 14007KT 4SM BR OVC007=

USA.gov is the U.S. government's official web portal to all federal, state and local government web resources and services.